LKVO METAR and TAF | Updated Today

LKVO METAR

Vodochody Airport

Observation time: 45 min. ago

LKVO 060800Z 35003KT 250V040 9999 FEW016 BKN025 01/M01 Q1012

Need help? Read our tutorial on how to read METARs or read the parsed version below.

Vodochody Airport (LKVO) METAR

  • Weather conditions on Mon, 06 Dec 2021 08:00:00 +0000 (45 min. ago):
  • Present conditions: Dry
  • Clouds: A few at 488 meters; broken sky at 762 meters
  • Visibility: Greater than 10 km
  • Wind: 350 degrees at 3 knots
  • Temperature: 1 celsius
  • Dew point: -1 celsius
  • Pressure: 1012 millibars
  • Remarks: None


Useful to know...